createdAt,value
2022-08-31T00:00:04.945Z,54.54
2022-08-31T00:02:50.133Z,54.69
2022-08-31T00:05:16.772Z,54.84
2022-08-31T00:07:43.377Z,55.00
2022-08-31T00:10:15.580Z,55.02
2022-08-31T00:12:43.283Z,54.94
2022-08-31T00:15:12.209Z,55.49
2022-08-31T00:17:38.709Z,55.70
2022-08-31T00:20:08.993Z,55.50
2022-08-31T00:22:55.726Z,55.61
2022-08-31T00:25:24.021Z,55.34
2022-08-31T00:27:50.856Z,56.54
2022-08-31T00:30:17.902Z,56.13
2022-08-31T00:32:44.402Z,55.87
2022-08-31T00:35:12.153Z,56.63
2022-08-31T00:37:38.598Z,56.74
2022-08-31T00:40:06.670Z,56.48
2022-08-31T00:42:33.233Z,56.45
2022-08-31T00:44:59.703Z,56.67
2022-08-31T00:47:26.245Z,56.38
2022-08-31T00:49:53.027Z,56.91
2022-08-31T00:52:50.870Z,57.14
2022-08-31T00:55:21.523Z,56.71
2022-08-31T00:57:52.972Z,56.83
2022-08-31T01:00:26.050Z,56.86
2022-08-31T01:02:52.884Z,56.99
2022-08-31T01:05:19.554Z,56.87
2022-08-31T01:07:47.755Z,56.79
2022-08-31T01:10:16.730Z,56.96
2022-08-31T01:12:45.485Z,57.05
2022-08-31T01:15:14.467Z,57.01
2022-08-31T01:17:43.038Z,57.26
2022-08-31T01:20:33.118Z,57.39
2022-08-31T01:23:05.601Z,57.04
2022-08-31T01:25:34.223Z,57.66
2022-08-31T01:28:04.478Z,56.81
2022-08-31T01:30:31.428Z,56.73
2022-08-31T01:32:58.182Z,56.79
2022-08-31T01:35:25.129Z,56.75
2022-08-31T01:37:52.453Z,57.20
2022-08-31T01:40:19.282Z,56.81
2022-08-31T01:42:45.878Z,57.15
2022-08-31T01:45:12.980Z,56.66
2022-08-31T01:47:40.399Z,57.00
2022-08-31T01:50:08.428Z,56.85
2022-08-31T01:52:37.442Z,56.47
2022-08-31T01:55:06.028Z,56.51
2022-08-31T01:57:34.072Z,56.11
2022-08-31T02:00:08.314Z,56.10
2022-08-31T02:02:35.307Z,55.76
2022-08-31T02:05:01.891Z,55.86
2022-08-31T02:07:28.367Z,55.52
2022-08-31T02:09:54.938Z,55.25
2022-08-31T02:12:21.455Z,54.55
2022-08-31T02:14:48.091Z,54.88
2022-08-31T02:17:14.671Z,55.51
2022-08-31T02:19:41.196Z,54.55
2022-08-31T02:22:07.645Z,54.54
2022-08-31T02:24:34.355Z,54.56
2022-08-31T02:27:00.973Z,54.44
2022-08-31T02:29:28.511Z,54.36
2022-08-31T02:31:54.991Z,54.01
2022-08-31T02:34:21.548Z,54.06
2022-08-31T02:36:48.096Z,53.72
2022-08-31T02:39:15.055Z,53.55
2022-08-31T02:41:42.078Z,53.12
2022-08-31T02:44:08.535Z,53.02
2022-08-31T02:46:35.317Z,52.96
2022-08-31T02:49:02.036Z,52.29
2022-08-31T02:51:28.505Z,52.10
2022-08-31T02:53:54.989Z,51.89
2022-08-31T02:56:21.477Z,51.88
2022-08-31T02:58:54.510Z,51.69
2022-08-31T03:01:22.543Z,51.40
2022-08-31T03:03:50.081Z,51.52
2022-08-31T03:06:17.456Z,51.35
2022-08-31T03:08:43.994Z,51.12
2022-08-31T03:11:10.512Z,50.83
2022-08-31T03:13:38.227Z,51.03
2022-08-31T03:16:05.550Z,50.90
2022-08-31T03:18:32.850Z,50.84
2022-08-31T03:20:59.577Z,50.75
2022-08-31T03:23:26.361Z,50.66
2022-08-31T03:25:52.770Z,50.99
2022-08-31T03:28:19.275Z,50.62
2022-08-31T03:30:45.822Z,50.72
2022-08-31T03:33:12.665Z,50.80
2022-08-31T03:35:43.665Z,50.90
2022-08-31T03:38:12.585Z,50.80
2022-08-31T03:40:41.168Z,51.09
2022-08-31T03:43:11.490Z,51.16
2022-08-31T03:45:42.010Z,51.04
2022-08-31T03:48:12.473Z,51.48
2022-08-31T03:50:41.394Z,51.46
2022-08-31T03:53:09.559Z,51.74
2022-08-31T03:55:39.251Z,51.49
2022-08-31T03:58:07.372Z,51.57
2022-08-31T04:00:34.961Z,51.83
2022-08-31T04:03:02.249Z,52.30
2022-08-31T04:05:30.462Z,52.05
2022-08-31T04:07:57.009Z,52.31
2022-08-31T04:10:23.752Z,52.67
2022-08-31T04:12:50.957Z,53.13
2022-08-31T04:15:18.703Z,52.88
2022-08-31T04:17:46.215Z,52.83
2022-08-31T04:20:13.275Z,53.14
2022-08-31T04:22:39.745Z,53.50
2022-08-31T04:25:06.723Z,53.29
2022-08-31T04:27:33.151Z,53.57
2022-08-31T04:29:59.625Z,53.54
2022-08-31T04:32:26.153Z,53.70
2022-08-31T04:34:56.270Z,53.70
2022-08-31T04:37:23.126Z,54.10
2022-08-31T04:39:51.272Z,54.26
2022-08-31T04:42:18.973Z,54.26
2022-08-31T04:44:45.434Z,54.30
2022-08-31T04:47:12.041Z,54.28
2022-08-31T04:49:38.839Z,54.88
2022-08-31T04:52:05.365Z,54.82
2022-08-31T04:54:32.072Z,54.79
2022-08-31T04:56:59.228Z,55.12
2022-08-31T04:59:27.344Z,54.95
2022-08-31T05:01:55.269Z,55.51
2022-08-31T05:04:24.609Z,56.20
2022-08-31T05:06:51.486Z,55.85
2022-08-31T05:09:21.761Z,56.17
2022-08-31T05:11:50.297Z,56.42
2022-08-31T05:14:16.908Z,56.38
2022-08-31T05:16:44.099Z,56.48
2022-08-31T05:19:11.068Z,56.75
2022-08-31T05:21:40.987Z,56.58
2022-08-31T05:24:14.095Z,56.65
2022-08-31T05:26:44.602Z,56.90
2022-08-31T05:29:16.077Z,56.65
2022-08-31T05:31:48.143Z,57.19
2022-08-31T05:34:18.708Z,57.32
2022-08-31T05:36:49.296Z,57.07
2022-08-31T05:39:15.869Z,56.64
2022-08-31T05:41:46.153Z,55.89
2022-08-31T05:44:13.393Z,56.34
2022-08-31T05:46:40.777Z,56.27
2022-08-31T05:49:08.670Z,56.01
2022-08-31T05:51:38.708Z,56.40
2022-08-31T05:54:07.098Z,56.54
2022-08-31T05:56:34.768Z,56.69
2022-08-31T05:59:01.415Z,56.21
2022-08-31T06:01:31.162Z,56.32
2022-08-31T06:03:59.008Z,56.20
2022-08-31T06:06:26.346Z,56.20
2022-08-31T06:08:53.207Z,56.24
2022-08-31T06:11:22.413Z,55.82
2022-08-31T06:13:52.503Z,56.48
2022-08-31T06:16:20.271Z,56.82
2022-08-31T06:18:50.922Z,57.38
2022-08-31T06:21:26.411Z,57.88
2022-08-31T06:23:54.620Z,58.06
2022-08-31T06:26:22.766Z,57.66
2022-08-31T06:28:52.527Z,57.50
2022-08-31T06:31:25.731Z,57.42
2022-08-31T06:33:52.942Z,57.73
2022-08-31T06:36:21.842Z,57.40
2022-08-31T06:38:48.412Z,57.50
2022-08-31T06:41:17.179Z,57.12
2022-08-31T06:43:44.435Z,57.01
2022-08-31T06:46:12.261Z,57.13
2022-08-31T06:48:39.049Z,57.28
2022-08-31T06:51:07.232Z,56.69
2022-08-31T06:53:40.137Z,56.36
2022-08-31T06:56:16.440Z,55.80
2022-08-31T06:58:53.499Z,55.69
2022-08-31T07:01:35.863Z,55.46
2022-08-31T07:04:09.099Z,55.07
2022-08-31T07:06:38.891Z,55.01
2022-08-31T07:09:07.922Z,55.13
2022-08-31T07:11:40.998Z,54.75
2022-08-31T07:14:12.533Z,54.24
2022-08-31T07:16:39.606Z,53.69
2022-08-31T07:19:07.383Z,52.79
2022-08-31T07:21:41.348Z,52.50
2022-08-31T07:24:10.123Z,52.51
2022-08-31T07:26:42.756Z,52.36
2022-08-31T07:29:11.177Z,51.69
2022-08-31T07:31:46.341Z,51.25
2022-08-31T07:34:28.132Z,50.57
2022-08-31T07:37:15.298Z,50.66
2022-08-31T07:40:06.371Z,50.74
2022-08-31T07:42:37.850Z,50.95
2022-08-31T07:45:09.367Z,50.71
2022-08-31T07:47:45.022Z,49.94
2022-08-31T07:50:11.655Z,49.05
2022-08-31T07:52:47.027Z,48.39
2022-08-31T07:55:15.257Z,47.96
2022-08-31T07:57:45.201Z,47.63
2022-08-31T08:00:21.363Z,46.74
2022-08-31T08:02:52.924Z,46.54
2022-08-31T08:05:26.790Z,46.66
2022-08-31T08:07:58.310Z,46.25
2022-08-31T08:10:26.186Z,46.05
2022-08-31T08:12:58.114Z,44.61
2022-08-31T08:15:26.659Z,44.22
2022-08-31T08:17:53.261Z,43.77
2022-08-31T08:20:34.039Z,42.87
2022-08-31T08:23:08.980Z,42.62
2022-08-31T08:25:37.530Z,42.58
2022-08-31T08:28:17.418Z,41.88
2022-08-31T08:30:54.326Z,41.23
2022-08-31T08:33:21.909Z,41.03
2022-08-31T08:35:57.320Z,41.02
2022-08-31T08:38:25.975Z,41.45
2022-08-31T08:40:53.174Z,41.48
2022-08-31T08:43:30.187Z,40.46
2022-08-31T08:45:57.593Z,40.01
2022-08-31T08:48:28.469Z,39.48
2022-08-31T08:50:54.937Z,40.00
2022-08-31T08:53:24.559Z,40.01
2022-08-31T08:55:51.417Z,39.92
2022-08-31T08:58:19.137Z,39.98
2022-08-31T09:00:51.794Z,40.12
2022-08-31T09:03:44.236Z,39.72
2022-08-31T09:06:19.348Z,39.37
2022-08-31T09:09:10.082Z,39.21
2022-08-31T09:11:46.526Z,38.93
2022-08-31T09:14:35.769Z,39.10
2022-08-31T09:17:17.784Z,38.87
2022-08-31T09:20:01.510Z,38.46
2022-08-31T09:22:30.378Z,39.31
2022-08-31T09:24:59.791Z,39.26
2022-08-31T09:27:45.704Z,38.60
2022-08-31T09:30:32.361Z,38.13
2022-08-31T09:32:58.962Z,37.54
2022-08-31T09:35:36.769Z,37.36
2022-08-31T09:38:09.873Z,36.52
2022-08-31T09:40:49.626Z,36.15
2022-08-31T09:43:22.255Z,36.69
2022-08-31T09:46:03.978Z,35.42
2022-08-31T09:48:51.944Z,35.14
2022-08-31T09:51:49.146Z,35.12
2022-08-31T09:54:34.482Z,34.58
2022-08-31T09:57:04.262Z,32.64
2022-08-31T09:59:45.898Z,32.67
2022-08-31T10:02:26.856Z,32.99
2022-08-31T10:04:57.154Z,32.38
2022-08-31T10:07:43.168Z,31.50
2022-08-31T10:10:30.499Z,30.02
2022-08-31T10:13:07.620Z,31.73
2022-08-31T10:15:43.981Z,30.29
2022-08-31T10:18:38.091Z,30.83
2022-08-31T10:21:10.612Z,30.99
2022-08-31T10:23:54.010Z,29.87
2022-08-31T10:26:36.557Z,29.75
2022-08-31T10:29:19.150Z,29.16
2022-08-31T10:31:53.656Z,28.38
2022-08-31T10:34:45.406Z,28.58
2022-08-31T10:37:24.794Z,28.28
2022-08-31T10:39:58.615Z,27.66
2022-08-31T10:42:29.991Z,28.97
2022-08-31T10:45:09.155Z,27.74
2022-08-31T10:47:41.761Z,27.88
2022-08-31T10:50:10.548Z,27.52
2022-08-31T10:52:47.567Z,28.20
2022-08-31T10:55:29.251Z,28.93
2022-08-31T10:58:34.680Z,28.36
2022-08-31T11:01:19.574Z,27.03
2022-08-31T11:04:29.289Z,26.88
2022-08-31T11:07:25.072Z,26.71
2022-08-31T11:10:19.800Z,25.41
2022-08-31T11:12:55.164Z,25.61
2022-08-31T11:15:39.258Z,24.33
2022-08-31T11:18:43.201Z,25.41
2022-08-31T11:21:18.059Z,25.69
2022-08-31T11:23:57.112Z,25.62
2022-08-31T11:26:57.002Z,24.75
2022-08-31T11:29:46.252Z,24.60
2022-08-31T11:32:45.754Z,25.66
2022-08-31T11:35:15.094Z,26.43
2022-08-31T11:37:54.485Z,25.68
2022-08-31T11:40:42.531Z,25.25
2022-08-31T11:43:31.207Z,25.23
2022-08-31T11:46:19.702Z,24.64
2022-08-31T11:48:53.612Z,24.60
2022-08-31T11:51:37.321Z,24.05
2022-08-31T11:54:41.434Z,24.04
2022-08-31T11:57:15.901Z,24.52
2022-08-31T11:59:46.043Z,24.79
2022-08-31T12:02:21.721Z,24.61
2022-08-31T12:05:03.196Z,23.82
2022-08-31T12:07:35.953Z,23.95
2022-08-31T12:10:43.514Z,24.43
2022-08-31T12:13:37.772Z,24.49
2022-08-31T12:16:17.882Z,24.41
2022-08-31T12:18:51.613Z,24.70
2022-08-31T12:21:52.705Z,25.68
2022-08-31T12:24:49.408Z,24.10
2022-08-31T12:27:34.602Z,24.65
2022-08-31T12:30:22.534Z,25.07
2022-08-31T12:33:14.856Z,24.19
2022-08-31T12:35:41.442Z,24.25
2022-08-31T12:38:16.191Z,24.25
2022-08-31T12:40:45.411Z,23.74
2022-08-31T12:43:22.249Z,23.87
2022-08-31T12:46:05.856Z,24.43
2022-08-31T12:48:44.373Z,24.16
2022-08-31T12:51:18.898Z,24.11
2022-08-31T12:54:24.522Z,23.90
2022-08-31T12:57:05.743Z,23.70
2022-08-31T13:00:01.183Z,23.93
2022-08-31T13:02:32.888Z,23.84
2022-08-31T13:05:00.457Z,24.07
2022-08-31T13:07:35.135Z,24.12
2022-08-31T13:10:16.643Z,24.49
2022-08-31T13:12:52.416Z,23.85
2022-08-31T13:15:28.783Z,23.71
2022-08-31T13:17:56.471Z,24.06
2022-08-31T13:20:35.443Z,25.25
2022-08-31T13:23:02.532Z,24.91
2022-08-31T13:25:35.759Z,24.16
2022-08-31T13:28:12.413Z,23.67
2022-08-31T13:30:41.430Z,24.56
2022-08-31T13:33:31.280Z,23.94
2022-08-31T13:36:10.022Z,23.72
2022-08-31T13:38:48.730Z,24.36
2022-08-31T13:41:28.581Z,24.40
2022-08-31T13:44:05.677Z,24.24
2022-08-31T13:46:43.273Z,24.21
2022-08-31T13:49:25.939Z,24.27
2022-08-31T13:51:52.703Z,23.14
2022-08-31T13:54:34.787Z,23.07
2022-08-31T13:57:20.621Z,23.77
2022-08-31T13:59:49.047Z,22.50
2022-08-31T14:02:16.257Z,22.57
2022-08-31T14:04:45.648Z,23.08
2022-08-31T14:07:43.676Z,24.14
2022-08-31T14:10:14.917Z,24.54
2022-08-31T14:12:47.221Z,24.23
2022-08-31T14:15:18.402Z,23.33
2022-08-31T14:21:24.134Z,23.99
2022-08-31T14:24:01.263Z,23.62
2022-08-31T14:26:34.085Z,23.24
2022-08-31T14:29:10.011Z,23.66
2022-08-31T14:31:56.124Z,23.44
2022-08-31T14:34:35.173Z,22.98
2022-08-31T14:37:06.269Z,24.02
2022-08-31T14:39:36.313Z,23.67
2022-08-31T14:42:08.057Z,24.44
2022-08-31T14:44:39.566Z,24.68
2022-08-31T14:47:06.314Z,24.41
2022-08-31T14:49:36.264Z,24.55
2022-08-31T14:52:06.900Z,24.12
2022-08-31T14:54:39.390Z,23.56
2022-08-31T14:57:17.572Z,23.63
2022-08-31T14:59:46.737Z,24.42
2022-08-31T15:02:21.190Z,25.66
2022-08-31T15:04:48.490Z,24.88
2022-08-31T15:07:16.534Z,25.80
2022-08-31T15:09:44.561Z,25.16
2022-08-31T15:12:12.220Z,26.28
2022-08-31T15:14:42.185Z,26.41
2022-08-31T15:17:18.958Z,26.00
2022-08-31T15:19:47.991Z,26.89
2022-08-31T15:22:15.817Z,26.99
2022-08-31T15:24:44.732Z,27.36
2022-08-31T15:27:14.339Z,27.07
2022-08-31T15:29:43.216Z,27.03
2022-08-31T15:32:16.262Z,27.50
2022-08-31T15:34:53.230Z,27.72
2022-08-31T15:37:21.368Z,27.52
2022-08-31T15:39:49.250Z,27.75
2022-08-31T15:42:21.128Z,27.63
2022-08-31T15:44:56.726Z,28.40
2022-08-31T15:47:48.311Z,28.20
2022-08-31T15:50:19.247Z,28.54
2022-08-31T15:52:51.125Z,28.86
2022-08-31T15:55:23.532Z,29.29
2022-08-31T15:57:54.205Z,29.12
2022-08-31T16:00:23.694Z,29.17
2022-08-31T16:02:57.069Z,29.21
2022-08-31T16:05:28.192Z,29.45
2022-08-31T16:07:55.655Z,29.74
2022-08-31T16:10:23.323Z,30.20
2022-08-31T16:12:51.877Z,29.88
2022-08-31T16:15:24.487Z,29.96
2022-08-31T16:17:51.345Z,29.98
2022-08-31T16:20:17.884Z,29.75
2022-08-31T16:22:44.553Z,29.73
2022-08-31T16:25:14.613Z,29.58
2022-08-31T16:27:43.266Z,29.57
2022-08-31T16:30:11.801Z,30.00
2022-08-31T16:32:38.610Z,30.19
2022-08-31T16:35:06.108Z,29.91
2022-08-31T16:37:33.491Z,30.06
2022-08-31T16:40:00.290Z,30.16
2022-08-31T16:42:27.518Z,30.00
2022-08-31T16:44:58.449Z,30.55
2022-08-31T16:47:28.942Z,30.14
2022-08-31T16:49:55.853Z,29.96
2022-08-31T16:52:26.553Z,30.71
2022-08-31T16:54:56.410Z,30.74
2022-08-31T16:57:26.944Z,30.23
2022-08-31T16:59:54.886Z,29.91
2022-08-31T17:02:22.973Z,29.76
2022-08-31T17:04:53.888Z,30.32
2022-08-31T17:07:23.016Z,30.48
2022-08-31T17:09:50.041Z,30.68
2022-08-31T17:12:21.255Z,30.58
2022-08-31T17:14:52.377Z,30.34
2022-08-31T17:17:22.422Z,30.42
2022-08-31T17:19:50.428Z,30.59
2022-08-31T17:22:25.752Z,30.95
2022-08-31T17:24:57.461Z,30.89
2022-08-31T17:27:25.741Z,31.04
2022-08-31T17:29:55.165Z,31.39
2022-08-31T17:32:25.352Z,31.48
2022-08-31T17:34:54.253Z,31.40
2022-08-31T17:37:32.185Z,32.61
2022-08-31T17:39:59.261Z,32.14
2022-08-31T17:42:28.068Z,31.93
2022-08-31T17:44:56.614Z,32.19
2022-08-31T17:47:24.816Z,32.83
2022-08-31T17:49:52.493Z,32.82
2022-08-31T17:52:21.385Z,32.84
2022-08-31T17:54:51.302Z,32.92
2022-08-31T17:57:22.129Z,33.77
2022-08-31T17:59:49.090Z,34.14
2022-08-31T18:02:19.919Z,33.89
2022-08-31T18:04:47.573Z,34.34
2022-08-31T18:07:14.586Z,34.30
2022-08-31T18:09:45.258Z,34.85
2022-08-31T18:12:12.053Z,34.90
2022-08-31T18:14:39.078Z,34.82
2022-08-31T18:17:09.445Z,34.92
2022-08-31T18:19:36.592Z,34.66
2022-08-31T18:22:03.890Z,34.61
2022-08-31T18:24:34.143Z,35.28
2022-08-31T18:27:03.894Z,34.90
2022-08-31T18:29:33.948Z,35.19
2022-08-31T18:32:05.144Z,35.53
2022-08-31T18:34:34.699Z,35.61
2022-08-31T18:37:02.189Z,36.10
2022-08-31T18:39:51.486Z,36.21
2022-08-31T18:42:38.146Z,36.48
2022-08-31T18:45:18.998Z,37.27
2022-08-31T18:48:20.869Z,37.11
2022-08-31T18:50:45.099Z,37.86
2022-08-31T18:53:15.006Z,37.94
2022-08-31T18:55:43.272Z,37.99
2022-08-31T18:58:09.881Z,38.62
2022-08-31T19:00:36.921Z,38.47
2022-08-31T19:03:04.072Z,39.33
2022-08-31T19:05:32.456Z,39.56
2022-08-31T19:08:00.078Z,39.99
2022-08-31T19:10:26.762Z,40.20
2022-08-31T19:12:55.520Z,40.61
2022-08-31T19:15:25.542Z,40.89
2022-08-31T19:18:02.309Z,41.31
2022-08-31T19:20:30.222Z,41.79
2022-08-31T19:22:57.018Z,42.08
2022-08-31T19:25:24.314Z,43.51
2022-08-31T19:27:51.286Z,43.64
2022-08-31T19:30:24.383Z,43.78
2022-08-31T19:32:53.485Z,44.00
2022-08-31T19:35:19.953Z,44.12
2022-08-31T19:37:47.241Z,44.75
2022-08-31T19:40:17.785Z,45.92
2022-08-31T19:43:41.832Z,45.97
2022-08-31T19:45:48.520Z,47.05
2022-08-31T19:48:17.312Z,47.23
2022-08-31T19:50:43.870Z,48.80
2022-08-31T19:53:11.966Z,48.72
2022-08-31T19:55:50.119Z,49.04
2022-08-31T19:58:19.060Z,49.89
2022-08-31T20:00:45.857Z,50.41
2022-08-31T20:03:15.582Z,50.92
2022-08-31T20:05:43.232Z,50.69
2022-08-31T20:08:10.205Z,50.97
2022-08-31T20:10:44.582Z,51.11
2022-08-31T20:13:12.382Z,51.83
2022-08-31T20:15:41.164Z,52.04
2022-08-31T20:18:11.200Z,52.56
2022-08-31T20:20:48.805Z,52.09
2022-08-31T20:23:17.568Z,52.51
2022-08-31T20:25:46.127Z,52.65
2022-08-31T20:28:13.491Z,53.18
2022-08-31T20:30:43.566Z,53.55
2022-08-31T20:33:11.726Z,53.92
2022-08-31T20:35:47.074Z,53.81
2022-08-31T20:38:17.854Z,53.31
2022-08-31T20:40:47.070Z,53.32
2022-08-31T20:43:14.329Z,53.75
2022-08-31T20:45:42.157Z,53.60
2022-08-31T20:48:28.241Z,54.16
2022-08-31T20:50:55.797Z,54.41
2022-08-31T20:53:38.972Z,54.08
2022-08-31T20:56:17.026Z,54.68
2022-08-31T20:58:45.295Z,54.48
2022-08-31T21:01:13.604Z,54.43
2022-08-31T21:03:40.815Z,54.88
2022-08-31T21:06:11.369Z,54.77
2022-08-31T21:08:39.734Z,54.94
2022-08-31T21:11:11.765Z,55.52
2022-08-31T21:13:38.500Z,55.53
2022-08-31T21:16:05.289Z,55.52
2022-08-31T21:18:33.983Z,55.65
2022-08-31T21:21:09.025Z,56.87
2022-08-31T21:23:37.425Z,56.28
2022-08-31T21:26:07.496Z,56.37
2022-08-31T21:28:38.363Z,56.66
2022-08-31T21:31:18.338Z,56.89
2022-08-31T21:33:57.293Z,57.02
2022-08-31T21:36:26.463Z,56.76
2022-08-31T21:38:57.309Z,57.20
2022-08-31T21:41:26.855Z,57.62
2022-08-31T21:43:55.589Z,57.43
2022-08-31T21:46:27.951Z,58.35
2022-08-31T21:48:56.668Z,57.91
2022-08-31T21:51:24.795Z,58.31
2022-08-31T21:53:54.694Z,58.60
2022-08-31T21:56:23.895Z,57.99
2022-08-31T21:58:50.587Z,58.61
2022-08-31T22:01:20.687Z,58.59
2022-08-31T22:03:48.669Z,59.38
2022-08-31T22:06:26.953Z,59.05
2022-08-31T22:09:00.098Z,58.94
2022-08-31T22:11:30.209Z,59.43
2022-08-31T22:13:58.537Z,59.41
2022-08-31T22:16:25.573Z,59.30
2022-08-31T22:19:02.681Z,59.42
2022-08-31T22:21:34.497Z,59.91
2022-08-31T22:24:06.386Z,59.62
2022-08-31T22:26:40.472Z,60.15
2022-08-31T22:29:09.317Z,60.74
2022-08-31T22:31:37.913Z,60.81
2022-08-31T22:34:06.903Z,60.80
2022-08-31T22:36:37.090Z,60.92
2022-08-31T22:39:09.634Z,60.81
2022-08-31T22:41:38.372Z,60.76
2022-08-31T22:44:06.378Z,61.02
2022-08-31T22:46:34.074Z,61.53
2022-08-31T22:49:01.893Z,61.98
2022-08-31T22:51:28.429Z,61.92
2022-08-31T22:53:54.989Z,62.49
2022-08-31T22:56:25.815Z,62.73
2022-08-31T22:58:57.891Z,62.69
2022-08-31T23:01:31.947Z,62.52
2022-08-31T23:04:00.756Z,62.50
2022-08-31T23:06:30.249Z,63.03
2022-08-31T23:08:57.657Z,63.01
2022-08-31T23:11:25.750Z,62.83
2022-08-31T23:13:57.263Z,62.77
2022-08-31T23:16:26.528Z,63.06
2022-08-31T23:18:57.500Z,62.97
2022-08-31T23:21:29.500Z,63.21
2022-08-31T23:23:56.713Z,63.28
2022-08-31T23:26:26.981Z,63.49
2022-08-31T23:28:58.817Z,64.04
2022-08-31T23:31:27.397Z,63.69
2022-08-31T23:33:54.560Z,63.62
2022-08-31T23:36:26.096Z,64.09
2022-08-31T23:38:55.076Z,63.93
2022-08-31T23:41:25.849Z,64.21
2022-08-31T23:43:53.428Z,64.40
2022-08-31T23:46:21.986Z,64.29
2022-08-31T23:48:48.538Z,64.63
2022-08-31T23:51:15.661Z,64.32
2022-08-31T23:53:45.666Z,65.13
2022-08-31T23:56:12.868Z,65.24
2022-08-31T23:58:40.404Z,64.82
